Time;durP1;ratioP1;P1;durP2;ratioP2;P2;SDS_P1;SDS_P2;PMS_P1;PMS_P2;Temp;Humidity;BMP_temperature;BMP_pressure;BME280_temperature;BME280_humidity;BME280_pressure;Samples;Min_cycle;Max_cycle;Signal;HPM_P1;HPM_P2
2021/09/12 00:01:14;;;;;;;9.50;8.60;;;;;;;;;;5068406;28;20176;-61
2021/09/12 00:03:40;;;;;;;10.50;8.93;;;;;;;;;;5068420;28;20580;-61
2021/09/12 00:06:09;;;;;;;9.30;8.40;;;;;;;;;;5069669;28;20184;-61
2021/09/12 00:08:35;;;;;;;8.67;7.87;;;;;;;;;;5064770;28;20256;-61
2021/09/12 00:11:01;;;;;;;9.13;8.37;;;;;;;;;;5066520;28;20262;-61
2021/09/12 00:13:27;;;;;;;8.93;8.13;;;;;;;;;;5060221;28;20191;-61
2021/09/12 00:15:56;;;;;;;8.10;7.00;;;;;;;;;;5067687;28;20269;-61
2021/09/12 00:18:22;;;;;;;8.70;7.30;;;;;;;;;;5067694;28;20218;-61
2021/09/12 00:20:51;;;;;;;7.43;6.73;;;;;;;;;;5065216;28;20190;-61
2021/09/12 00:23:17;;;;;;;8.70;7.93;;;;;;;;;;5064272;28;20541;-61
2021/09/12 00:25:43;;;;;;;7.77;7.00;;;;;;;;;;5069067;28;20744;-62
2021/09/12 00:28:09;;;;;;;7.70;6.60;;;;;;;;;;5066939;28;20603;-62
2021/09/12 00:30:35;;;;;;;8.30;7.60;;;;;;;;;;5066511;28;20212;-62
2021/09/12 00:33:02;;;;;;;8.37;7.57;;;;;;;;;;5066442;28;20200;-62
2021/09/12 00:35:28;;;;;;;8.33;7.63;;;;;;;;;;5068633;28;20174;-62
2021/09/12 00:37:54;;;;;;;8.30;7.57;;;;;;;;;;5067916;28;20175;-62
2021/09/12 00:40:21;;;;;;;7.87;7.17;;;;;;;;;;5064383;28;20175;-62
2021/09/12 00:42:48;;;;;;;7.97;7.23;;;;;;;;;;5068460;28;20639;-62
2021/09/12 00:45:17;;;;;;;8.73;7.83;;;;;;;;;;5064009;28;20215;-62
2021/09/12 00:47:45;;;;;;;7.67;6.97;;;;;;;;;;5069510;28;20181;-62
2021/09/12 00:50:11;;;;;;;7.13;6.53;;;;;;;;;;5067445;28;20208;-62
2021/09/12 00:52:40;;;;;;;8.00;7.30;;;;;;;;;;5066916;28;20781;-62
2021/09/12 00:55:06;;;;;;;7.53;6.87;;;;;;;;;;5067896;28;20177;-62
2021/09/12 00:57:35;;;;;;;6.90;6.33;;;;;;;;;;5067095;28;20177;-62
2021/09/12 01:00:02;;;;;;;7.90;7.30;;;;;;;;;;5063248;28;20634;-62
2021/09/12 01:02:28;;;;;;;7.80;7.10;;;;;;;;;;5065157;28;20277;-62
2021/09/12 01:04:54;;;;;;;8.13;7.47;;;;;;;;;;5067889;28;20179;-61
2021/09/12 01:07:20;;;;;;;9.03;8.13;;;;;;;;;;5064322;28;20180;-62
2021/09/12 01:09:46;;;;;;;8.80;7.67;;;;;;;;;;5060078;28;20235;-62
2021/09/12 01:12:12;;;;;;;8.73;7.93;;;;;;;;;;5066558;28;20658;-61
2021/09/12 01:14:39;;;;;;;7.97;7.27;;;;;;;;;;5066128;28;20218;-61
2021/09/12 01:17:05;;;;;;;8.30;7.60;;;;;;;;;;5064521;28;20186;-61
2021/09/12 01:19:31;;;;;;;8.93;7.13;;;;;;;;;;5066617;28;20177;-61
2021/09/12 01:21:58;;;;;;;8.30;7.50;;;;;;;;;;5061086;28;20603;-61
2021/09/12 01:24:25;;;;;;;9.37;8.47;;;;;;;;;;5068160;28;20265;-61
2021/09/12 01:26:51;;;;;;;8.70;7.80;;;;;;;;;;5068846;28;20280;-61
2021/09/12 01:29:18;;;;;;;8.00;7.20;;;;;;;;;;5062340;28;20208;-61
2021/09/12 01:31:44;;;;;;;9.07;8.23;;;;;;;;;;5054705;28;20205;-61
2021/09/12 01:34:10;;;;;;;8.50;7.70;;;;;;;;;;5063488;28;20180;-61
2021/09/12 01:36:36;;;;;;;10.20;8.60;;;;;;;;;;5067866;28;20180;-61
2021/09/12 01:39:03;;;;;;;8.13;7.43;;;;;;;;;;5062344;28;20631;-61
2021/09/12 01:41:29;;;;;;;8.40;7.70;;;;;;;;;;5066926;28;20185;-61
2021/09/12 01:43:56;;;;;;;8.87;8.07;;;;;;;;;;5064683;28;20221;-61
2021/09/12 01:46:22;;;;;;;8.63;7.90;;;;;;;;;;5066482;28;20246;-61
2021/09/12 01:48:49;;;;;;;9.33;8.50;;;;;;;;;;5062001;28;20184;-61
2021/09/12 01:51:15;;;;;;;10.50;8.10;;;;;;;;;;5065534;28;20207;-61
2021/09/12 01:53:41;;;;;;;9.20;7.83;;;;;;;;;;5063907;28;20184;-61
2021/09/12 01:56:07;;;;;;;8.20;7.40;;;;;;;;;;5064076;28;20635;-61
2021/09/12 01:58:33;;;;;;;8.90;8.10;;;;;;;;;;5059958;28;20173;-61
2021/09/12 02:00:59;;;;;;;8.53;7.73;;;;;;;;;;5064926;28;20237;-61
2021/09/12 02:03:25;;;;;;;10.33;9.33;;;;;;;;;;5063831;28;20186;-61
2021/09/12 02:05:52;;;;;;;8.87;8.07;;;;;;;;;;5061787;28;20181;-61
2021/09/12 02:08:18;;;;;;;8.87;7.47;;;;;;;;;;5053280;28;20222;-61
2021/09/12 02:10:44;;;;;;;9.07;8.20;;;;;;;;;;5065223;28;20201;-61
2021/09/12 02:13:11;;;;;;;10.20;8.67;;;;;;;;;;5061824;28;20195;-61
2021/09/12 02:15:37;;;;;;;8.63;7.73;;;;;;;;;;5066193;28;20253;-61
2021/09/12 02:18:03;;;;;;;9.03;8.13;;;;;;;;;;5066315;28;20176;-61
2021/09/12 02:20:29;;;;;;;9.83;8.87;;;;;;;;;;5064295;28;20346;-61
2021/09/12 02:22:55;;;;;;;9.37;8.37;;;;;;;;;;5055263;28;20180;-61
2021/09/12 02:25:21;;;;;;;8.33;7.53;;;;;;;;;;5075456;28;20676;-61
2021/09/12 02:27:47;;;;;;;10.73;8.70;;;;;;;;;;5067660;28;20184;-61
2021/09/12 02:30:14;;;;;;;10.83;8.30;;;;;;;;;;5080785;28;20559;-61
2021/09/12 02:32:40;;;;;;;9.30;8.23;;;;;;;;;;5065924;28;20216;-61
2021/09/12 02:35:06;;;;;;;8.60;7.80;;;;;;;;;;5062613;28;20191;-61
2021/09/12 02:37:32;;;;;;;9.77;7.60;;;;;;;;;;5057153;28;20269;-61
2021/09/12 02:39:58;;;;;;;9.30;8.40;;;;;;;;;;5068788;28;20681;-61
2021/09/12 02:42:24;;;;;;;9.10;8.20;;;;;;;;;;5060513;28;20184;-61
2021/09/12 02:44:50;;;;;;;9.30;8.33;;;;;;;;;;5064876;28;20188;-61
2021/09/12 02:47:17;;;;;;;9.40;8.50;;;;;;;;;;5064947;28;20230;-61
2021/09/12 02:49:43;;;;;;;9.13;7.43;;;;;;;;;;5065149;28;20211;-61
2021/09/12 02:52:09;;;;;;;8.20;7.50;;;;;;;;;;5063774;28;20204;-61
2021/09/12 02:54:35;;;;;;;9.43;8.37;;;;;;;;;;5068705;28;20187;-61
2021/09/12 02:57:01;;;;;;;9.13;8.23;;;;;;;;;;5067147;28;20176;-60
2021/09/12 02:59:27;;;;;;;8.60;7.80;;;;;;;;;;5065472;28;20278;-61
2021/09/12 03:01:53;;;;;;;9.20;8.30;;;;;;;;;;5065520;28;20181;-61
2021/09/12 03:04:19;;;;;;;9.80;8.53;;;;;;;;;;5070417;28;20275;-61
2021/09/12 03:06:45;;;;;;;10.00;8.73;;;;;;;;;;5066342;28;20192;-61
2021/09/12 03:09:11;;;;;;;8.77;7.97;;;;;;;;;;5066130;28;20247;-61
2021/09/12 03:11:37;;;;;;;9.60;8.70;;;;;;;;;;5069247;28;20204;-61
2021/09/12 03:14:04;;;;;;;8.33;7.17;;;;;;;;;;5067221;28;20526;-61
2021/09/12 03:16:30;;;;;;;12.50;11.30;;;;;;;;;;5066090;28;20783;-61
2021/09/12 03:18:56;;;;;;;7.73;7.03;;;;;;;;;;5066991;28;20180;-61
2021/09/12 03:21:22;;;;;;;8.80;8.00;;;;;;;;;;5065443;28;20280;-61
2021/09/12 03:23:48;;;;;;;8.43;7.73;;;;;;;;;;5062890;28;20265;-62
2021/09/12 03:26:14;;;;;;;8.00;7.10;;;;;;;;;;5066380;28;20201;-61
2021/09/12 03:28:42;;;;;;;8.10;7.30;;;;;;;;;;5066754;28;20283;-61
2021/09/12 03:31:08;;;;;;;9.43;8.53;;;;;;;;;;5065405;28;20210;-61
2021/09/12 03:33:34;;;;;;;8.57;7.60;;;;;;;;;;5067580;28;20512;-61
2021/09/12 03:36:00;;;;;;;9.17;7.83;;;;;;;;;;5063838;28;20542;-61
2021/09/12 03:38:27;;;;;;;7.27;6.57;;;;;;;;;;5056746;28;20199;-61
2021/09/12 03:40:53;;;;;;;8.23;6.60;;;;;;;;;;5062745;28;20183;-61
2021/09/12 03:43:19;;;;;;;8.23;7.40;;;;;;;;;;5063201;28;20178;-61
2021/09/12 03:45:45;;;;;;;8.18;7.32;;;;;;;;;;5061558;28;20449;-61
2021/09/12 03:48:11;;;;;;;9.10;7.70;;;;;;;;;;5063667;28;20207;-61
2021/09/12 03:50:37;;;;;;;8.83;6.97;;;;;;;;;;5064802;28;20236;-61
2021/09/12 03:53:03;;;;;;;10.23;7.33;;;;;;;;;;5063776;28;20260;-61
2021/09/12 03:55:29;;;;;;;9.13;7.63;;;;;;;;;;5063576;28;20187;-61
2021/09/12 03:57:55;;;;;;;8.97;6.40;;;;;;;;;;5074190;28;20185;-61
2021/09/12 04:00:21;;;;;;;10.40;8.10;;;;;;;;;;5067178;28;20207;-61
2021/09/12 04:02:47;;;;;;;10.00;7.87;;;;;;;;;;5063245;28;20188;-61
2021/09/12 04:05:14;;;;;;;11.97;11.10;;;;;;;;;;5062021;28;20184;-61
2021/09/12 04:07:42;;;;;;;10.33;7.40;;;;;;;;;;5066369;28;21995;-61
2021/09/12 04:10:09;;;;;;;9.70;6.97;;;;;;;;;;5062229;28;20224;-61
2021/09/12 04:12:35;;;;;;;9.17;7.17;;;;;;;;;;5063527;28;20173;-61
2021/09/12 04:15:01;;;;;;;9.67;7.50;;;;;;;;;;5063675;28;20193;-61
2021/09/12 04:17:30;;;;;;;7.63;6.70;;;;;;;;;;5064803;28;20284;-61
2021/09/12 04:19:56;;;;;;;8.57;7.17;;;;;;;;;;5064580;28;20517;-61
2021/09/12 04:22:22;;;;;;;7.43;6.73;;;;;;;;;;5059606;28;20192;-61
2021/09/12 04:24:48;;;;;;;7.67;6.60;;;;;;;;;;5075157;28;20201;-61
2021/09/12 04:27:15;;;;;;;11.00;10.10;;;;;;;;;;5068582;28;20627;-61
2021/09/12 04:29:41;;;;;;;7.67;6.70;;;;;;;;;;5059913;28;20257;-61
2021/09/12 04:32:07;;;;;;;10.00;6.80;;;;;;;;;;5062600;28;20228;-63
2021/09/12 04:34:33;;;;;;;7.93;6.77;;;;;;;;;;5065500;28;20667;-61
2021/09/12 04:37:00;;;;;;;8.47;6.90;;;;;;;;;;5057883;28;20176;-61
2021/09/12 04:39:26;;;;;;;7.43;6.73;;;;;;;;;;5066395;28;20185;-61
2021/09/12 04:41:52;;;;;;;7.77;7.03;;;;;;;;;;5055955;28;20215;-61
2021/09/12 04:44:18;;;;;;;10.67;9.67;;;;;;;;;;5060757;28;20635;-61
2021/09/12 04:46:44;;;;;;;8.87;8.13;;;;;;;;;;5075336;28;20530;-61
2021/09/12 04:49:10;;;;;;;9.20;8.43;;;;;;;;;;5063116;28;20187;-61
2021/09/12 04:51:36;;;;;;;7.60;6.57;;;;;;;;;;5060582;28;20200;-61
2021/09/12 04:54:02;;;;;;;6.83;6.13;;;;;;;;;;5065070;28;20177;-61
2021/09/12 04:56:28;;;;;;;6.73;6.13;;;;;;;;;;5058235;28;20184;-61
2021/09/12 04:58:54;;;;;;;6.63;5.57;;;;;;;;;;5058745;28;20921;-61
2021/09/12 05:01:20;;;;;;;7.10;5.77;;;;;;;;;;5064278;28;20242;-61
2021/09/12 05:03:47;;;;;;;6.63;5.93;;;;;;;;;;5064872;28;20183;-61
2021/09/12 05:06:13;;;;;;;6.43;5.80;;;;;;;;;;5065414;28;20184;-61
2021/09/12 05:08:39;;;;;;;5.93;5.43;;;;;;;;;;5067433;28;20243;-61
2021/09/12 05:11:06;;;;;;;5.90;5.13;;;;;;;;;;5059832;28;20817;-62
2021/09/12 05:13:32;;;;;;;5.83;5.23;;;;;;;;;;5063050;28;20185;-61
2021/09/12 05:15:59;;;;;;;5.93;5.27;;;;;;;;;;5064525;28;20322;-62
2021/09/12 05:18:24;;;;;;;5.23;4.73;;;;;;;;;;5063590;28;20176;-62
2021/09/12 05:20:54;;;;;;;9.17;5.13;;;;;;;;;;5062902;28;20914;-62
2021/09/12 05:23:20;;;;;;;6.00;4.43;;;;;;;;;;5057710;28;20188;-62
2021/09/12 05:25:47;;;;;;;5.13;4.20;;;;;;;;;;5082143;28;20187;-62
2021/09/12 05:28:13;;;;;;;4.53;4.13;;;;;;;;;;5065960;28;20264;-62
2021/09/12 05:30:39;;;;;;;5.33;4.90;;;;;;;;;;5065156;28;20283;-61
2021/09/12 05:33:05;;;;;;;5.00;4.57;;;;;;;;;;5055743;28;20290;-62
2021/09/12 05:35:31;;;;;;;6.37;4.93;;;;;;;;;;5060945;28;20260;-62
2021/09/12 05:37:57;;;;;;;7.43;4.87;;;;;;;;;;5060036;28;20193;-62
2021/09/12 05:40:23;;;;;;;6.27;4.33;;;;;;;;;;5061200;28;20242;-62
2021/09/12 05:42:49;;;;;;;6.40;5.37;;;;;;;;;;5054132;28;20212;-62
2021/09/12 05:45:15;;;;;;;5.57;5.07;;;;;;;;;;5057224;28;20273;-61
2021/09/12 05:47:41;;;;;;;4.87;4.30;;;;;;;;;;5056723;28;20184;-61
2021/09/12 05:50:07;;;;;;;6.03;5.07;;;;;;;;;;5059338;28;20513;-61
2021/09/12 05:52:34;;;;;;;5.37;4.50;;;;;;;;;;5055961;28;20192;-62
2021/09/12 05:55:00;;;;;;;6.97;4.80;;;;;;;;;;5062591;28;20535;-61
2021/09/12 05:57:26;;;;;;;5.17;4.70;;;;;;;;;;5060898;28;20188;-61
2021/09/12 05:59:52;;;;;;;6.77;5.67;;;;;;;;;;5061710;28;20271;-61
2021/09/12 06:02:18;;;;;;;6.37;5.07;;;;;;;;;;5060864;28;20184;-61
2021/09/12 06:04:45;;;;;;;8.73;5.10;;;;;;;;;;5059192;28;20218;-62
2021/09/12 06:07:11;;;;;;;5.77;4.93;;;;;;;;;;5060095;28;20277;-61
2021/09/12 06:09:38;;;;;;;5.40;4.67;;;;;;;;;;5058337;28;20220;-62
2021/09/12 06:12:05;;;;;;;6.83;5.43;;;;;;;;;;5058788;28;20196;-61
2021/09/12 06:14:31;;;;;;;6.50;5.43;;;;;;;;;;5059541;28;20212;-61
2021/09/12 06:16:57;;;;;;;5.73;4.63;;;;;;;;;;5059211;28;20507;-61
2021/09/12 06:19:23;;;;;;;5.30;4.47;;;;;;;;;;5060621;28;20223;-62
2021/09/12 06:21:49;;;;;;;7.57;5.17;;;;;;;;;;5060660;28;20234;-61
2021/09/12 06:24:16;;;;;;;7.43;6.33;;;;;;;;;;5056092;28;20536;-62
2021/09/12 06:26:42;;;;;;;7.00;5.63;;;;;;;;;;5059819;28;20227;-62
2021/09/12 06:29:08;;;;;;;7.90;6.10;;;;;;;;;;5060144;28;20220;-62
2021/09/12 06:31:34;;;;;;;8.00;5.90;;;;;;;;;;5060765;28;20766;-62
2021/09/12 06:34:00;;;;;;;7.07;6.17;;;;;;;;;;5057664;28;20185;-62
2021/09/12 06:36:26;;;;;;;7.50;5.20;;;;;;;;;;5059838;28;20912;-62
2021/09/12 06:38:52;;;;;;;5.93;5.40;;;;;;;;;;5058228;28;20181;-61
2021/09/12 06:41:18;;;;;;;8.20;5.80;;;;;;;;;;5061361;28;20542;-61
2021/09/12 06:43:44;;;;;;;5.90;5.20;;;;;;;;;;5059889;28;20184;-61
2021/09/12 06:46:10;;;;;;;8.77;5.30;;;;;;;;;;5062941;28;20180;-62
2021/09/12 06:48:36;;;;;;;5.70;5.20;;;;;;;;;;5060777;28;20177;-61
2021/09/12 06:51:03;;;;;;;6.93;5.47;;;;;;;;;;5061381;28;20211;-61
2021/09/12 06:53:29;;;;;;;5.37;4.53;;;;;;;;;;5063389;28;20650;-61
2021/09/12 06:55:55;;;;;;;6.17;4.87;;;;;;;;;;5066608;28;20179;-61
2021/09/12 06:58:21;;;;;;;7.50;5.30;;;;;;;;;;5062372;28;20181;-62
2021/09/12 07:00:47;;;;;;;5.90;4.57;;;;;;;;;;5063964;28;20249;-62
2021/09/12 07:03:13;;;;;;;5.97;4.30;;;;;;;;;;5057217;28;20648;-62
2021/09/12 07:05:40;;;;;;;6.03;4.73;;;;;;;;;;5059579;28;20275;-61
2021/09/12 07:08:06;;;;;;;5.87;4.63;;;;;;;;;;5073547;28;20201;-62
2021/09/12 07:10:32;;;;;;;8.00;5.30;;;;;;;;;;5062047;28;20224;-61
2021/09/12 07:12:58;;;;;;;6.37;5.40;;;;;;;;;;5068716;28;20208;-62
2021/09/12 07:15:25;;;;;;;5.20;4.00;;;;;;;;;;5063495;28;20180;-61
2021/09/12 07:17:51;;;;;;;5.97;4.50;;;;;;;;;;5058738;28;20234;-61
2021/09/12 07:20:18;;;;;;;7.97;4.63;;;;;;;;;;5064201;28;20207;-62
2021/09/12 07:22:46;;;;;;;9.33;5.00;;;;;;;;;;5066316;28;20207;-61
2021/09/12 07:25:13;;;;;;;7.23;4.60;;;;;;;;;;5063704;28;20173;-61
2021/09/12 07:27:39;;;;;;;6.53;5.47;;;;;;;;;;5061113;28;20188;-61
2021/09/12 07:30:06;;;;;;;9.17;4.87;;;;;;;;;;5059226;28;20245;-61
2021/09/12 07:32:32;;;;;;;6.70;5.00;;;;;;;;;;5066093;28;20200;-61
2021/09/12 07:34:58;;;;;;;6.23;5.00;;;;;;;;;;5071913;28;20563;-61
2021/09/12 07:37:24;;;;;;;8.60;6.10;;;;;;;;;;5069803;28;20181;-61
2021/09/12 07:39:50;;;;;;;6.33;4.60;;;;;;;;;;5071257;28;20176;-61
2021/09/12 07:42:16;;;;;;;7.43;5.17;;;;;;;;;;5069567;28;20184;-61
2021/09/12 07:44:42;;;;;;;6.07;5.17;;;;;;;;;;5070459;28;20544;-61
2021/09/12 07:47:08;;;;;;;6.77;4.50;;;;;;;;;;5066831;28;20225;-61
2021/09/12 07:49:34;;;;;;;11.07;5.97;;;;;;;;;;5070970;28;20184;-61
2021/09/12 07:52:00;;;;;;;9.10;5.50;;;;;;;;;;5068257;28;20203;-61
2021/09/12 07:54:29;;;;;;;14.47;5.53;;;;;;;;;;5065539;28;20188;-60
2021/09/12 07:56:55;;;;;;;7.33;5.27;;;;;;;;;;5070142;28;20165;-61
2021/09/12 07:59:21;;;;;;;5.87;5.30;;;;;;;;;;5065828;28;20782;-61
2021/09/12 08:01:47;;;;;;;7.20;5.23;;;;;;;;;;5062954;28;20188;-61
2021/09/12 08:04:13;;;;;;;6.57;5.10;;;;;;;;;;5065051;28;20207;-61
2021/09/12 08:06:39;;;;;;;8.97;5.47;;;;;;;;;;5066447;28;20180;-62
2021/09/12 08:09:05;;;;;;;5.10;4.60;;;;;;;;;;5065267;28;20219;-62
2021/09/12 08:11:32;;;;;;;5.33;4.80;;;;;;;;;;5069320;28;20246;-61
2021/09/12 08:13:58;;;;;;;5.50;4.10;;;;;;;;;;5069505;28;20192;-62
2021/09/12 08:16:24;;;;;;;8.07;4.63;;;;;;;;;;5069064;28;20172;-61
2021/09/12 08:18:50;;;;;;;4.93;4.50;;;;;;;;;;5064913;28;20181;-61
2021/09/12 08:21:16;;;;;;;6.07;4.27;;;;;;;;;;5065291;28;20195;-61
2021/09/12 08:23:42;;;;;;;5.83;4.47;;;;;;;;;;5063046;28;20598;-61
2021/09/12 08:26:08;;;;;;;4.73;3.70;;;;;;;;;;5066277;28;20176;-61
2021/09/12 08:28:34;;;;;;;3.73;2.80;;;;;;;;;;5068248;28;20278;-61
2021/09/12 08:31:00;;;;;;;3.93;2.90;;;;;;;;;;5066537;28;20189;-61
2021/09/12 08:33:27;;;;;;;5.67;3.30;;;;;;;;;;5063889;28;20787;-61
2021/09/12 08:35:53;;;;;;;4.67;2.93;;;;;;;;;;5067933;28;20176;-61
2021/09/12 08:38:19;;;;;;;5.23;3.07;;;;;;;;;;5070526;28;20528;-61
2021/09/12 08:40:46;;;;;;;2.87;2.57;;;;;;;;;;5067850;28;20177;-61
2021/09/12 08:43:13;;;;;;;3.47;3.10;;;;;;;;;;5061718;28;20580;-61
2021/09/12 08:45:39;;;;;;;8.03;3.90;;;;;;;;;;5062707;28;20173;-61
2021/09/12 08:48:06;;;;;;;6.03;3.90;;;;;;;;;;5063616;28;20192;-61
2021/09/12 08:50:32;;;;;;;8.20;5.17;;;;;;;;;;5063281;28;20259;-61
2021/09/12 08:52:59;;;;;;;13.60;5.93;;;;;;;;;;5072329;28;20184;-62
2021/09/12 08:55:25;;;;;;;9.27;5.10;;;;;;;;;;5066576;28;20236;-61
2021/09/12 08:57:52;;;;;;;5.30;3.37;;;;;;;;;;5068436;28;20177;-61
2021/09/12 09:00:22;;;;;;;5.93;4.13;;;;;;;;;;5067429;28;20180;-61
2021/09/12 09:02:49;;;;;;;5.87;4.03;;;;;;;;;;5067309;28;20180;-62
2021/09/12 09:05:15;;;;;;;4.97;3.67;;;;;;;;;;5068858;28;20587;-61
2021/09/12 09:07:42;;;;;;;7.07;4.00;;;;;;;;;;5067533;28;20174;-61
2021/09/12 09:10:19;;;;;;;6.80;4.27;;;;;;;;;;5069341;28;20659;-61
2021/09/12 09:12:45;;;;;;;6.13;3.97;;;;;;;;;;5068401;28;20183;-61
2021/09/12 09:15:13;;;;;;;7.60;4.77;;;;;;;;;;5067150;28;20190;-60
2021/09/12 09:17:49;;;;;;;4.67;3.37;;;;;;;;;;5067456;28;20185;-59
2021/09/12 09:20:29;;;;;;;3.53;2.90;;;;;;;;;;5065930;28;20515;-60
2021/09/12 09:22:57;;;;;;;6.37;3.03;;;;;;;;;;5069007;28;20189;-60
2021/09/12 09:25:28;;;;;;;3.93;3.60;;;;;;;;;;5069479;28;20677;-61
2021/09/12 09:27:58;;;;;;;3.47;3.17;;;;;;;;;;5068768;28;21251;-61
2021/09/12 09:30:25;;;;;;;8.57;3.93;;;;;;;;;;5067400;28;20641;-60
2021/09/12 09:32:51;;;;;;;5.93;3.70;;;;;;;;;;5066492;28;20247;-61
2021/09/12 09:35:21;;;;;;;7.20;4.03;;;;;;;;;;5069265;28;20522;-61
2021/09/12 09:37:48;;;;;;;7.40;4.63;;;;;;;;;;5067651;28;20158;-60
2021/09/12 09:40:14;;;;;;;4.87;3.43;;;;;;;;;;5080543;28;20752;-61
2021/09/12 09:42:41;;;;;;;5.83;3.63;;;;;;;;;;5062885;28;20279;-61
2021/09/12 09:45:18;;;;;;;6.67;3.80;;;;;;;;;;5066423;28;20232;-60
2021/09/12 09:47:48;;;;;;;5.10;3.57;;;;;;;;;;5066876;28;20210;-60
2021/09/12 09:50:14;;;;;;;5.13;3.97;;;;;;;;;;5064607;28;20202;-60
2021/09/12 09:52:41;;;;;;;4.00;3.40;;;;;;;;;;5068180;28;20277;-60
2021/09/12 09:55:08;;;;;;;6.20;3.70;;;;;;;;;;5065545;28;20195;-60
2021/09/12 09:57:34;;;;;;;4.17;2.80;;;;;;;;;;5068228;28;20228;-60
2021/09/12 10:00:01;;;;;;;4.63;3.20;;;;;;;;;;5066540;28;20177;-60
2021/09/12 10:02:27;;;;;;;3.47;2.97;;;;;;;;;;5065934;28;20187;-61
2021/09/12 10:04:54;;;;;;;5.70;3.50;;;;;;;;;;5065212;28;20185;-60
2021/09/12 10:07:20;;;;;;;6.73;2.73;;;;;;;;;;5066807;28;20272;-60
2021/09/12 10:09:46;;;;;;;3.27;2.77;;;;;;;;;;5064327;28;20222;-61
2021/09/12 10:12:14;;;;;;;5.83;3.17;;;;;;;;;;5061555;28;20203;-60
2021/09/12 10:14:52;;;;;;;4.83;3.43;;;;;;;;;;5067053;28;20637;-60
2021/09/12 10:17:21;;;;;;;3.93;2.47;;;;;;;;;;5068962;28;20181;-60
2021/09/12 10:19:48;;;;;;;5.90;3.70;;;;;;;;;;5067618;28;20323;-60
2021/09/12 10:22:19;;;;;;;3.70;2.93;;;;;;;;;;5063016;28;20197;-60
2021/09/12 10:25:03;;;;;;;4.90;3.00;;;;;;;;;;5065114;28;20190;-60
2021/09/12 10:27:36;;;;;;;4.47;2.83;;;;;;;;;;5061655;28;20570;-60
2021/09/12 10:30:21;;;;;;;4.63;3.20;;;;;;;;;;5067760;28;20222;-60
2021/09/12 10:32:50;;;;;;;3.37;2.93;;;;;;;;;;5061849;28;20192;-60
2021/09/12 10:35:24;;;;;;;4.00;3.07;;;;;;;;;;5062487;28;20187;-61
2021/09/12 10:37:57;;;;;;;4.40;3.37;;;;;;;;;;5059209;28;20168;-60
2021/09/12 10:40:24;;;;;;;4.53;3.03;;;;;;;;;;5066862;28;20593;-60
2021/09/12 10:42:50;;;;;;;3.40;2.60;;;;;;;;;;5067399;28;20179;-60
2021/09/12 10:45:25;;;;;;;3.30;3.00;;;;;;;;;;5067559;28;20177;-60
2021/09/12 10:47:51;;;;;;;3.43;2.63;;;;;;;;;;5066719;28;20197;-60
2021/09/12 10:50:36;;;;;;;4.37;2.90;;;;;;;;;;5066825;28;20391;-60
2021/09/12 10:53:02;;;;;;;2.70;2.50;;;;;;;;;;5060207;28;20191;-60
2021/09/12 10:55:28;;;;;;;4.73;2.80;;;;;;;;;;5067696;28;20191;-60
2021/09/12 10:57:55;;;;;;;2.70;2.50;;;;;;;;;;5067762;28;20195;-60
2021/09/12 11:00:21;;;;;;;4.70;2.90;;;;;;;;;;5063809;28;20181;-60
2021/09/12 11:02:51;;;;;;;3.77;2.77;;;;;;;;;;5069425;28;20183;-60
2021/09/12 11:05:24;;;;;;;5.73;2.90;;;;;;;;;;5068526;28;20180;-60
2021/09/12 11:07:54;;;;;;;3.07;2.77;;;;;;;;;;5075952;28;20258;-60
2021/09/12 11:10:40;;;;;;;3.03;2.70;;;;;;;;;;5067568;28;20220;-60
2021/09/12 11:13:08;;;;;;;3.33;3.03;;;;;;;;;;5067182;28;20181;-59
2021/09/12 11:15:34;;;;;;;5.63;3.70;;;;;;;;;;5066394;28;20231;-60
2021/09/12 11:18:00;;;;;;;3.03;2.63;;;;;;;;;;5066536;28;20192;-60
2021/09/12 11:20:43;;;;;;;6.27;3.13;;;;;;;;;;5066149;28;20190;-57
2021/09/12 11:23:09;;;;;;;4.80;3.00;;;;;;;;;;5064278;28;20217;-59
2021/09/12 11:25:35;;;;;;;2.73;2.53;;;;;;;;;;5066982;28;20196;-60
2021/09/12 11:28:06;;;;;;;4.77;2.70;;;;;;;;;;5066894;28;20226;-60
2021/09/12 11:30:32;;;;;;;3.43;2.50;;;;;;;;;;5069781;28;20185;-59
2021/09/12 11:32:59;;;;;;;2.87;2.67;;;;;;;;;;5064564;28;21238;-59
2021/09/12 11:35:26;;;;;;;3.03;2.73;;;;;;;;;;5064956;28;20185;-60
2021/09/12 11:38:08;;;;;;;3.60;2.80;;;;;;;;;;5062216;28;20294;-60
2021/09/12 11:40:34;;;;;;;2.50;2.30;;;;;;;;;;5070559;28;20188;-60
2021/09/12 11:43:17;;;;;;;4.33;2.60;;;;;;;;;;5075198;28;21158;-59
2021/09/12 11:45:44;;;;;;;4.10;2.57;;;;;;;;;;5068810;28;20169;-60
2021/09/12 11:48:10;;;;;;;4.03;2.53;;;;;;;;;;5071987;28;20659;-59
2021/09/12 11:50:36;;;;;;;4.17;2.20;;;;;;;;;;5069363;28;21309;-60
2021/09/12 11:53:12;;;;;;;5.80;2.63;;;;;;;;;;5065265;28;20187;-60
2021/09/12 11:55:41;;;;;;;3.77;2.73;;;;;;;;;;5071514;28;20197;-59
2021/09/12 11:58:09;;;;;;;5.47;4.00;;;;;;;;;;5071649;28;20179;-60
2021/09/12 12:00:43;;;;;;;3.57;2.87;;;;;;;;;;5071423;28;20212;-60
2021/09/12 12:03:11;;;;;;;4.17;3.40;;;;;;;;;;5068973;28;20564;-60
2021/09/12 12:05:38;;;;;;;3.07;2.60;;;;;;;;;;5076194;28;20196;-60
2021/09/12 12:08:05;;;;;;;4.47;3.40;;;;;;;;;;5068270;28;20181;-59
2021/09/12 12:10:35;;;;;;;2.97;2.50;;;;;;;;;;5068620;28;20228;-59
2021/09/12 12:13:01;;;;;;;3.77;2.80;;;;;;;;;;5061839;28;20253;-59
2021/09/12 12:15:35;;;;;;;3.00;2.80;;;;;;;;;;5065149;28;20437;-59
2021/09/12 12:18:01;;;;;;;3.57;2.80;;;;;;;;;;5070478;28;20759;-59
2021/09/12 12:20:33;;;;;;;3.63;3.10;;;;;;;;;;5065397;28;20177;-60
2021/09/12 12:23:18;;;;;;;3.73;2.80;;;;;;;;;;5066527;28;20189;-60
2021/09/12 12:25:44;;;;;;;3.70;2.63;;;;;;;;;;5068489;28;20184;-59
2021/09/12 12:28:18;;;;;;;4.90;3.20;;;;;;;;;;5068425;28;20230;-60
2021/09/12 12:30:45;;;;;;;4.97;3.17;;;;;;;;;;5077009;28;20464;-60
2021/09/12 12:33:14;;;;;;;3.47;2.80;;;;;;;;;;5064431;28;20544;-59
2021/09/12 12:35:40;;;;;;;5.80;3.50;;;;;;;;;;5069053;28;20184;-60
2021/09/12 12:38:06;;;;;;;3.60;2.90;;;;;;;;;;5070556;28;20233;-60
2021/09/12 12:40:32;;;;;;;3.57;3.00;;;;;;;;;;5068088;28;20180;-60
2021/09/12 12:43:03;;;;;;;3.20;2.50;;;;;;;;;;5068999;28;20191;-60
2021/09/12 12:45:30;;;;;;;2.83;2.40;;;;;;;;;;5060438;28;20184;-60
2021/09/12 12:48:16;;;;;;;3.57;2.50;;;;;;;;;;5062155;28;20181;-59
2021/09/12 12:50:44;;;;;;;6.33;3.47;;;;;;;;;;5063920;28;20227;-58
2021/09/12 12:53:14;;;;;;;4.70;2.87;;;;;;;;;;5067227;28;20635;-60
2021/09/12 12:55:40;;;;;;;5.47;2.90;;;;;;;;;;5066664;28;20207;-60
2021/09/12 12:58:12;;;;;;;2.90;2.70;;;;;;;;;;5069496;28;20196;-59
2021/09/12 13:00:41;;;;;;;2.60;2.40;;;;;;;;;;5068177;28;20181;-60
2021/09/12 13:03:07;;;;;;;3.53;2.60;;;;;;;;;;5063856;28;20209;-60
2021/09/12 13:05:34;;;;;;;4.90;2.83;;;;;;;;;;5062617;28;20254;-59
2021/09/12 13:08:00;;;;;;;4.53;2.87;;;;;;;;;;5064334;28;20710;-60
2021/09/12 13:10:26;;;;;;;4.13;3.03;;;;;;;;;;5068567;28;20226;-59
2021/09/12 13:12:53;;;;;;;7.67;3.47;;;;;;;;;;5067917;28;20542;-59
2021/09/12 13:15:19;;;;;;;4.60;3.10;;;;;;;;;;5066511;28;20253;-59
2021/09/12 13:17:45;;;;;;;5.40;2.83;;;;;;;;;;5065902;28;20174;-59
2021/09/12 13:20:12;;;;;;;5.97;3.10;;;;;;;;;;5068261;28;20236;-59
2021/09/12 13:22:38;;;;;;;4.23;2.90;;;;;;;;;;5068932;28;20638;-60
2021/09/12 13:25:05;;;;;;;3.03;2.73;;;;;;;;;;5066869;28;20179;-59
2021/09/12 13:27:31;;;;;;;3.17;2.50;;;;;;;;;;5068839;28;20199;-59
2021/09/12 13:30:00;;;;;;;3.07;2.77;;;;;;;;;;5065718;28;20183;-59
2021/09/12 13:32:26;;;;;;;4.20;2.90;;;;;;;;;;5065520;28;20619;-59
2021/09/12 13:34:53;;;;;;;3.47;2.97;;;;;;;;;;5065220;28;20667;-57
2021/09/12 13:37:19;;;;;;;4.80;3.07;;;;;;;;;;5068579;28;20250;-57
2021/09/12 13:39:45;;;;;;;4.17;3.00;;;;;;;;;;5063048;28;20189;-58
2021/09/12 13:42:11;;;;;;;3.40;3.10;;;;;;;;;;5068385;28;20194;-58
2021/09/12 13:44:38;;;;;;;4.27;2.80;;;;;;;;;;5060464;28;20182;-58
2021/09/12 13:47:04;;;;;;;6.50;3.00;;;;;;;;;;5064517;28;20606;-58
2021/09/12 13:49:31;;;;;;;2.97;2.63;;;;;;;;;;5050368;28;20661;-57
2021/09/12 13:51:57;;;;;;;5.33;3.23;;;;;;;;;;5066882;28;20339;-57
2021/09/12 13:54:23;;;;;;;6.03;3.13;;;;;;;;;;5067718;28;20183;-57
2021/09/12 13:56:49;;;;;;;3.10;2.77;;;;;;;;;;5067071;28;20179;-57
2021/09/12 13:59:16;;;;;;;4.17;3.23;;;;;;;;;;5066925;28;20260;-57
2021/09/12 14:01:42;;;;;;;3.97;2.50;;;;;;;;;;5063968;28;20182;-57
2021/09/12 14:04:08;;;;;;;4.47;4.03;;;;;;;;;;5060395;28;20189;-57
2021/09/12 14:06:34;;;;;;;3.53;3.23;;;;;;;;;;5061106;28;20234;-58
2021/09/12 14:09:01;;;;;;;4.10;2.93;;;;;;;;;;5065973;28;20214;-58
2021/09/12 14:11:27;;;;;;;4.03;3.20;;;;;;;;;;5064902;28;20202;-57
2021/09/12 14:13:55;;;;;;;4.50;3.40;;;;;;;;;;5062011;28;20623;-58
2021/09/12 14:16:21;;;;;;;3.43;3.03;;;;;;;;;;5062261;28;20183;-58
2021/09/12 14:18:47;;;;;;;6.03;3.37;;;;;;;;;;5063343;28;20179;-58
2021/09/12 14:21:14;;;;;;;6.00;4.30;;;;;;;;;;5066786;28;20282;-57
2021/09/12 14:23:41;;;;;;;3.80;2.90;;;;;;;;;;5063506;28;20194;-58
2021/09/12 14:26:07;;;;;;;6.10;3.13;;;;;;;;;;5060213;28;20186;-58
2021/09/12 14:28:33;;;;;;;4.63;3.23;;;;;;;;;;5062798;28;20193;-58
2021/09/12 14:30:59;;;;;;;4.93;3.60;;;;;;;;;;5058245;28;20542;-58
2021/09/12 14:33:26;;;;;;;3.53;3.20;;;;;;;;;;5067803;28;20567;-57
2021/09/12 14:35:52;;;;;;;7.13;3.47;;;;;;;;;;5067341;28;20630;-58
2021/09/12 14:38:18;;;;;;;3.97;2.80;;;;;;;;;;5066818;28;20243;-58
2021/09/12 14:40:44;;;;;;;4.53;3.17;;;;;;;;;;5061461;28;20216;-58
2021/09/12 14:43:10;;;;;;;4.00;3.57;;;;;;;;;;5067026;28;20241;-58